sensor_id;sensor_type;location;lat;lon;timestamp;temperature;humidity
1359;DHT22;673;48.098;14.422;2023-01-09T00:01:51;2.70;99.90
1359;DHT22;673;48.098;14.422;2023-01-09T00:04:18;2.70;99.90
1359;DHT22;673;48.098;14.422;2023-01-09T00:06:45;2.70;99.90
1359;DHT22;673;48.098;14.422;2023-01-09T00:09:18;2.70;99.90
1359;DHT22;673;48.098;14.422;2023-01-09T00:11:45;2.80;99.90
1359;DHT22;673;48.098;14.422;2023-01-09T00:14:12;2.80;99.90
1359;DHT22;673;48.098;14.422;2023-01-09T00:16:39;2.80;99.90
1359;DHT22;673;48.098;14.422;2023-01-09T00:19:08;2.80;99.90
1359;DHT22;673;48.098;14.422;2023-01-09T00:21:35;2.80;99.90
1359;DHT22;673;48.098;14.422;2023-01-09T00:24:03;2.90;99.90
1359;DHT22;673;48.098;14.422;2023-01-09T00:26:30;2.90;99.90
1359;DHT22;673;48.098;14.422;2023-01-09T00:28:58;2.80;99.90
1359;DHT22;673;48.098;14.422;2023-01-09T00:31:25;2.80;99.90
1359;DHT22;673;48.098;14.422;2023-01-09T00:33:54;2.90;99.90
1359;DHT22;673;48.098;14.422;2023-01-09T00:36:23;2.90;99.90
1359;DHT22;673;48.098;14.422;2023-01-09T00:38:50;2.90;99.90
1359;DHT22;673;48.098;14.422;2023-01-09T00:41:20;2.90;99.90
1359;DHT22;673;48.098;14.422;2023-01-09T00:43:55;2.90;99.90
1359;DHT22;673;48.098;14.422;2023-01-09T00:46:30;3.00;99.90
1359;DHT22;673;48.098;14.422;2023-01-09T00:48:59;2.90;99.90
1359;DHT22;673;48.098;14.422;2023-01-09T00:51:29;2.90;99.90
1359;DHT22;673;48.098;14.422;2023-01-09T00:53:56;3.00;99.90
1359;DHT22;673;48.098;14.422;2023-01-09T00:56:23;3.00;99.90
1359;DHT22;673;48.098;14.422;2023-01-09T00:58:51;3.00;99.90
1359;DHT22;673;48.098;14.422;2023-01-09T01:01:18;2.90;99.90
1359;DHT22;673;48.098;14.422;2023-01-09T01:03:45;2.90;99.90
1359;DHT22;673;48.098;14.422;2023-01-09T01:06:12;2.90;99.90
1359;DHT22;673;48.098;14.422;2023-01-09T01:08:57;2.90;99.90
1359;DHT22;673;48.098;14.422;2023-01-09T01:11:24;2.90;99.90
1359;DHT22;673;48.098;14.422;2023-01-09T01:13:52;3.00;99.90
1359;DHT22;673;48.098;14.422;2023-01-09T01:16:18;3.00;99.90
1359;DHT22;673;48.098;14.422;2023-01-09T01:18:45;3.00;99.90
1359;DHT22;673;48.098;14.422;2023-01-09T01:21:13;3.00;99.90
1359;DHT22;673;48.098;14.422;2023-01-09T01:23:40;3.00;99.90
1359;DHT22;673;48.098;14.422;2023-01-09T01:26:11;3.00;99.90
1359;DHT22;673;48.098;14.422;2023-01-09T01:28:38;3.00;99.90
1359;DHT22;673;48.098;14.422;2023-01-09T01:31:05;2.90;99.90
1359;DHT22;673;48.098;14.422;2023-01-09T01:33:33;2.90;99.90
1359;DHT22;673;48.098;14.422;2023-01-09T01:36:02;2.90;99.90
1359;DHT22;673;48.098;14.422;2023-01-09T01:38:29;2.90;99.90
1359;DHT22;673;48.098;14.422;2023-01-09T01:40:57;2.90;99.90
1359;DHT22;673;48.098;14.422;2023-01-09T01:43:25;2.90;99.90
1359;DHT22;673;48.098;14.422;2023-01-09T01:45:52;2.90;99.90
1359;DHT22;673;48.098;14.422;2023-01-09T01:48:21;2.90;99.90
1359;DHT22;673;48.098;14.422;2023-01-09T01:50:52;2.90;99.90
1359;DHT22;673;48.098;14.422;2023-01-09T01:53:23;2.90;99.90
1359;DHT22;673;48.098;14.422;2023-01-09T01:56:00;3.00;99.90
1359;DHT22;673;48.098;14.422;2023-01-09T01:58:31;3.00;99.90
1359;DHT22;673;48.098;14.422;2023-01-09T02:00:58;3.10;99.90
1359;DHT22;673;48.098;14.422;2023-01-09T02:03:27;2.90;99.90
1359;DHT22;673;48.098;14.422;2023-01-09T02:05:54;3.00;99.90
1359;DHT22;673;48.098;14.422;2023-01-09T02:08:21;3.00;99.90
1359;DHT22;673;48.098;14.422;2023-01-09T02:10:49;2.90;99.90
1359;DHT22;673;48.098;14.422;2023-01-09T02:13:17;2.80;99.90
1359;DHT22;673;48.098;14.422;2023-01-09T02:15:58;2.90;99.90
1359;DHT22;673;48.098;14.422;2023-01-09T02:18:34;2.90;99.90
1359;DHT22;673;48.098;14.422;2023-01-09T02:21:09;2.90;99.90
1359;DHT22;673;48.098;14.422;2023-01-09T02:24:08;2.80;99.90
1359;DHT22;673;48.098;14.422;2023-01-09T02:27:00;2.90;99.90
1359;DHT22;673;48.098;14.422;2023-01-09T02:32:44;2.90;99.90
1359;DHT22;673;48.098;14.422;2023-01-09T02:35:26;2.90;99.90
1359;DHT22;673;48.098;14.422;2023-01-09T02:38:04;3.00;99.90
1359;DHT22;673;48.098;14.422;2023-01-09T02:40:40;2.90;99.90
1359;DHT22;673;48.098;14.422;2023-01-09T02:43:10;3.00;99.90
1359;DHT22;673;48.098;14.422;2023-01-09T02:45:38;3.00;99.90
1359;DHT22;673;48.098;14.422;2023-01-09T02:48:08;3.00;99.90
1359;DHT22;673;48.098;14.422;2023-01-09T02:50:40;3.10;99.90
1359;DHT22;673;48.098;14.422;2023-01-09T02:53:23;3.00;99.90
1359;DHT22;673;48.098;14.422;2023-01-09T02:56:13;2.90;99.90
1359;DHT22;673;48.098;14.422;2023-01-09T02:59:00;2.90;99.90
1359;DHT22;673;48.098;14.422;2023-01-09T03:01:38;2.80;99.90
1359;DHT22;673;48.098;14.422;2023-01-09T03:04:18;2.80;99.90
1359;DHT22;673;48.098;14.422;2023-01-09T03:06:51;2.80;99.90
1359;DHT22;673;48.098;14.422;2023-01-09T03:09:22;2.80;99.90
1359;DHT22;673;48.098;14.422;2023-01-09T03:11:56;2.80;99.90
1359;DHT22;673;48.098;14.422;2023-01-09T03:14:25;2.80;99.90
1359;DHT22;673;48.098;14.422;2023-01-09T03:16:56;2.80;99.90
1359;DHT22;673;48.098;14.422;2023-01-09T03:19:29;2.70;99.90
1359;DHT22;673;48.098;14.422;2023-01-09T03:21:57;2.70;99.90
1359;DHT22;673;48.098;14.422;2023-01-09T03:24:24;2.80;99.90
1359;DHT22;673;48.098;14.422;2023-01-09T03:26:51;2.80;99.90
1359;DHT22;673;48.098;14.422;2023-01-09T03:29:18;2.80;99.90
1359;DHT22;673;48.098;14.422;2023-01-09T03:31:45;2.70;99.90
1359;DHT22;673;48.098;14.422;2023-01-09T03:34:12;2.60;99.90
1359;DHT22;673;48.098;14.422;2023-01-09T03:36:41;2.60;99.90
1359;DHT22;673;48.098;14.422;2023-01-09T03:39:07;2.60;99.90
1359;DHT22;673;48.098;14.422;2023-01-09T03:41:34;2.70;99.90
1359;DHT22;673;48.098;14.422;2023-01-09T03:44:01;2.70;99.90
1359;DHT22;673;48.098;14.422;2023-01-09T03:46:28;2.70;99.90
1359;DHT22;673;48.098;14.422;2023-01-09T03:48:55;2.70;99.90
1359;DHT22;673;48.098;14.422;2023-01-09T03:51:22;2.50;99.90
1359;DHT22;673;48.098;14.422;2023-01-09T03:53:50;2.60;99.90
1359;DHT22;673;48.098;14.422;2023-01-09T03:56:17;2.50;99.90
1359;DHT22;673;48.098;14.422;2023-01-09T03:58:44;2.50;99.90
1359;DHT22;673;48.098;14.422;2023-01-09T04:01:11;2.60;99.90
1359;DHT22;673;48.098;14.422;2023-01-09T04:03:38;2.50;99.90
1359;DHT22;673;48.098;14.422;2023-01-09T04:06:06;2.50;99.90
1359;DHT22;673;48.098;14.422;2023-01-09T04:08:33;2.60;99.90
1359;DHT22;673;48.098;14.422;2023-01-09T04:11:01;2.60;99.90
1359;DHT22;673;48.098;14.422;2023-01-09T04:13:28;2.60;99.90
1359;DHT22;673;48.098;14.422;2023-01-09T04:15:55;2.50;99.90
1359;DHT22;673;48.098;14.422;2023-01-09T04:18:23;2.60;99.90
1359;DHT22;673;48.098;14.422;2023-01-09T04:20:50;2.60;99.90
1359;DHT22;673;48.098;14.422;2023-01-09T04:23:17;2.70;99.90
1359;DHT22;673;48.098;14.422;2023-01-09T04:25:44;2.70;99.90
1359;DHT22;673;48.098;14.422;2023-01-09T04:28:13;2.70;99.90
1359;DHT22;673;48.098;14.422;2023-01-09T04:30:40;2.70;99.90
1359;DHT22;673;48.098;14.422;2023-01-09T04:33:07;2.70;99.90
1359;DHT22;673;48.098;14.422;2023-01-09T04:35:34;2.70;99.90
1359;DHT22;673;48.098;14.422;2023-01-09T04:38:01;2.70;99.90
1359;DHT22;673;48.098;14.422;2023-01-09T04:40:28;2.70;99.90
1359;DHT22;673;48.098;14.422;2023-01-09T04:42:54;2.80;99.90
1359;DHT22;673;48.098;14.422;2023-01-09T04:45:23;2.80;99.90
1359;DHT22;673;48.098;14.422;2023-01-09T04:47:50;2.80;99.90
1359;DHT22;673;48.098;14.422;2023-01-09T04:50:17;2.70;99.90
1359;DHT22;673;48.098;14.422;2023-01-09T04:52:44;2.80;99.90
1359;DHT22;673;48.098;14.422;2023-01-09T04:55:10;2.80;99.90
1359;DHT22;673;48.098;14.422;2023-01-09T04:57:38;2.80;99.90
1359;DHT22;673;48.098;14.422;2023-01-09T05:00:06;2.70;99.90
1359;DHT22;673;48.098;14.422;2023-01-09T05:02:38;2.80;99.90
1359;DHT22;673;48.098;14.422;2023-01-09T05:05:06;2.70;99.90
1359;DHT22;673;48.098;14.422;2023-01-09T05:07:33;2.70;99.90
1359;DHT22;673;48.098;14.422;2023-01-09T05:10:01;2.70;99.90
1359;DHT22;673;48.098;14.422;2023-01-09T05:12:28;2.70;99.90
1359;DHT22;673;48.098;14.422;2023-01-09T05:14:55;2.70;99.90
1359;DHT22;673;48.098;14.422;2023-01-09T05:17:23;2.80;99.90
1359;DHT22;673;48.098;14.422;2023-01-09T05:19:51;2.80;99.90
1359;DHT22;673;48.098;14.422;2023-01-09T05:22:18;2.80;99.90
1359;DHT22;673;48.098;14.422;2023-01-09T05:24:45;2.80;99.90
1359;DHT22;673;48.098;14.422;2023-01-09T05:27:12;2.80;99.90
1359;DHT22;673;48.098;14.422;2023-01-09T05:29:39;2.90;99.90
1359;DHT22;673;48.098;14.422;2023-01-09T05:32:06;2.90;99.90
1359;DHT22;673;48.098;14.422;2023-01-09T05:34:33;2.90;99.90
1359;DHT22;673;48.098;14.422;2023-01-09T05:37:01;2.90;99.90
1359;DHT22;673;48.098;14.422;2023-01-09T05:39:28;2.90;99.90
1359;DHT22;673;48.098;14.422;2023-01-09T05:41:55;2.90;99.90
1359;DHT22;673;48.098;14.422;2023-01-09T05:44:22;2.90;99.90
1359;DHT22;673;48.098;14.422;2023-01-09T05:46:49;2.90;99.90
1359;DHT22;673;48.098;14.422;2023-01-09T05:49:16;2.80;99.90
1359;DHT22;673;48.098;14.422;2023-01-09T05:51:43;2.90;99.90
1359;DHT22;673;48.098;14.422;2023-01-09T05:54:11;2.80;99.90
1359;DHT22;673;48.098;14.422;2023-01-09T05:56:38;2.80;99.90
1359;DHT22;673;48.098;14.422;2023-01-09T05:59:05;2.80;99.90
1359;DHT22;673;48.098;14.422;2023-01-09T06:01:32;2.90;99.90
1359;DHT22;673;48.098;14.422;2023-01-09T06:03:59;2.90;99.90
1359;DHT22;673;48.098;14.422;2023-01-09T06:06:25;2.90;99.90
1359;DHT22;673;48.098;14.422;2023-01-09T06:08:52;2.80;99.90
1359;DHT22;673;48.098;14.422;2023-01-09T06:11:21;2.80;99.90
1359;DHT22;673;48.098;14.422;2023-01-09T06:13:48;2.80;99.90
1359;DHT22;673;48.098;14.422;2023-01-09T06:16:15;2.80;99.90
1359;DHT22;673;48.098;14.422;2023-01-09T06:18:42;2.80;99.90
1359;DHT22;673;48.098;14.422;2023-01-09T06:21:09;2.80;99.90
1359;DHT22;673;48.098;14.422;2023-01-09T06:23:36;2.80;99.90
1359;DHT22;673;48.098;14.422;2023-01-09T06:26:03;2.80;99.90
1359;DHT22;673;48.098;14.422;2023-01-09T06:28:31;2.80;99.90
1359;DHT22;673;48.098;14.422;2023-01-09T06:30:58;2.80;99.90
1359;DHT22;673;48.098;14.422;2023-01-09T06:33:25;2.80;99.90
1359;DHT22;673;48.098;14.422;2023-01-09T06:35:52;2.80;99.90
1359;DHT22;673;48.098;14.422;2023-01-09T06:38:19;2.80;99.90
1359;DHT22;673;48.098;14.422;2023-01-09T06:40:46;2.80;99.90
1359;DHT22;673;48.098;14.422;2023-01-09T06:43:14;2.80;99.90
1359;DHT22;673;48.098;14.422;2023-01-09T06:45:43;2.80;99.90
1359;DHT22;673;48.098;14.422;2023-01-09T06:48:10;2.80;99.90
1359;DHT22;673;48.098;14.422;2023-01-09T06:50:37;2.80;99.90
1359;DHT22;673;48.098;14.422;2023-01-09T06:53:04;2.80;99.90
1359;DHT22;673;48.098;14.422;2023-01-09T06:55:31;2.80;99.90
1359;DHT22;673;48.098;14.422;2023-01-09T06:57:58;2.80;99.90
1359;DHT22;673;48.098;14.422;2023-01-09T07:00:25;2.80;99.90
1359;DHT22;673;48.098;14.422;2023-01-09T07:02:53;2.80;99.90
1359;DHT22;673;48.098;14.422;2023-01-09T07:05:20;2.90;99.90
1359;DHT22;673;48.098;14.422;2023-01-09T07:07:47;3.00;99.90
1359;DHT22;673;48.098;14.422;2023-01-09T07:10:14;3.00;99.90
1359;DHT22;673;48.098;14.422;2023-01-09T07:12:41;3.10;99.90
1359;DHT22;673;48.098;14.422;2023-01-09T07:15:09;3.20;99.90
1359;DHT22;673;48.098;14.422;2023-01-09T07:17:36;3.20;99.90
1359;DHT22;673;48.098;14.422;2023-01-09T07:20:05;3.30;99.90
1359;DHT22;673;48.098;14.422;2023-01-09T07:22:33;3.30;99.90
1359;DHT22;673;48.098;14.422;2023-01-09T07:25:00;3.30;99.90
1359;DHT22;673;48.098;14.422;2023-01-09T07:27:26;3.30;99.90
1359;DHT22;673;48.098;14.422;2023-01-09T07:29:53;3.30;99.90
1359;DHT22;673;48.098;14.422;2023-01-09T07:32:20;3.30;99.90
1359;DHT22;673;48.098;14.422;2023-01-09T07:34:47;3.20;99.90
1359;DHT22;673;48.098;14.422;2023-01-09T07:37:17;3.10;99.90
1359;DHT22;673;48.098;14.422;2023-01-09T07:39:44;3.10;99.90
1359;DHT22;673;48.098;14.422;2023-01-09T07:42:11;3.10;99.90
1359;DHT22;673;48.098;14.422;2023-01-09T07:44:38;3.00;99.90
1359;DHT22;673;48.098;14.422;2023-01-09T07:47:05;3.00;99.90
1359;DHT22;673;48.098;14.422;2023-01-09T07:49:32;2.90;99.90
1359;DHT22;673;48.098;14.422;2023-01-09T07:51:59;2.90;99.90
1359;DHT22;673;48.098;14.422;2023-01-09T07:54:27;2.90;99.90
1359;DHT22;673;48.098;14.422;2023-01-09T07:56:54;3.00;99.90
1359;DHT22;673;48.098;14.422;2023-01-09T07:59:21;3.00;99.90
1359;DHT22;673;48.098;14.422;2023-01-09T08:01:48;3.00;99.90
1359;DHT22;673;48.098;14.422;2023-01-09T08:04:15;3.10;99.90
1359;DHT22;673;48.098;14.422;2023-01-09T08:06:42;3.20;99.90
1359;DHT22;673;48.098;14.422;2023-01-09T08:09:09;3.30;99.90
1359;DHT22;673;48.098;14.422;2023-01-09T08:11:37;3.50;99.90
1359;DHT22;673;48.098;14.422;2023-01-09T08:14:04;3.60;99.90
1359;DHT22;673;48.098;14.422;2023-01-09T08:16:31;3.70;99.90
1359;DHT22;673;48.098;14.422;2023-01-09T08:18:58;4.00;99.90
1359;DHT22;673;48.098;14.422;2023-01-09T08:21:25;4.40;99.90
1359;DHT22;673;48.098;14.422;2023-01-09T08:23:52;4.70;99.90
1359;DHT22;673;48.098;14.422;2023-01-09T08:26:19;4.80;99.90
1359;DHT22;673;48.098;14.422;2023-01-09T08:28:48;5.00;99.90
1359;DHT22;673;48.098;14.422;2023-01-09T08:31:14;5.00;99.90
1359;DHT22;673;48.098;14.422;2023-01-09T08:33:42;5.20;99.90
1359;DHT22;673;48.098;14.422;2023-01-09T08:36:09;5.30;99.90
1359;DHT22;673;48.098;14.422;2023-01-09T08:38:36;5.30;99.90
1359;DHT22;673;48.098;14.422;2023-01-09T08:41:03;5.40;99.90
1359;DHT22;673;48.098;14.422;2023-01-09T08:43:51;5.50;99.90
1359;DHT22;673;48.098;14.422;2023-01-09T08:46:36;5.50;99.90
1359;DHT22;673;48.098;14.422;2023-01-09T08:49:20;5.50;99.90
1359;DHT22;673;48.098;14.422;2023-01-09T08:51:47;5.50;99.90
1359;DHT22;673;48.098;14.422;2023-01-09T08:54:14;5.50;99.90
1359;DHT22;673;48.098;14.422;2023-01-09T08:56:41;5.40;99.90
1359;DHT22;673;48.098;14.422;2023-01-09T08:59:10;5.40;99.90
1359;DHT22;673;48.098;14.422;2023-01-09T09:01:37;5.40;99.90
1359;DHT22;673;48.098;14.422;2023-01-09T09:04:04;5.40;99.90
1359;DHT22;673;48.098;14.422;2023-01-09T09:06:31;5.40;99.90
1359;DHT22;673;48.098;14.422;2023-01-09T09:08:58;5.40;99.90
1359;DHT22;673;48.098;14.422;2023-01-09T09:11:28;5.40;99.90
1359;DHT22;673;48.098;14.422;2023-01-09T09:13:55;5.30;99.90
1359;DHT22;673;48.098;14.422;2023-01-09T09:16:23;5.30;99.90
1359;DHT22;673;48.098;14.422;2023-01-09T09:18:51;5.30;99.90
1359;DHT22;673;48.098;14.422;2023-01-09T09:21:18;5.30;99.90
1359;DHT22;673;48.098;14.422;2023-01-09T09:23:46;5.30;99.90
1359;DHT22;673;48.098;14.422;2023-01-09T09:26:12;5.30;99.90
1359;DHT22;673;48.098;14.422;2023-01-09T09:28:39;5.30;99.90
1359;DHT22;673;48.098;14.422;2023-01-09T09:31:06;5.30;99.90
1359;DHT22;673;48.098;14.422;2023-01-09T09:33:35;5.40;99.90
1359;DHT22;673;48.098;14.422;2023-01-09T09:36:02;5.50;99.90
1359;DHT22;673;48.098;14.422;2023-01-09T09:38:29;5.50;99.90
1359;DHT22;673;48.098;14.422;2023-01-09T09:41:10;5.60;99.90
1359;DHT22;673;48.098;14.422;2023-01-09T09:44:07;5.70;99.90
1359;DHT22;673;48.098;14.422;2023-01-09T09:47:02;5.70;99.90
1359;DHT22;673;48.098;14.422;2023-01-09T09:49:39;5.80;99.90
1359;DHT22;673;48.098;14.422;2023-01-09T09:52:13;5.80;99.90
1359;DHT22;673;48.098;14.422;2023-01-09T09:54:48;5.70;99.90
1359;DHT22;673;48.098;14.422;2023-01-09T09:57:18;5.80;99.90
1359;DHT22;673;48.098;14.422;2023-01-09T09:59:47;5.90;99.90
1359;DHT22;673;48.098;14.422;2023-01-09T10:02:24;5.90;99.90
1359;DHT22;673;48.098;14.422;2023-01-09T10:04:58;6.00;99.90
1359;DHT22;673;48.098;14.422;2023-01-09T10:07:29;6.10;99.90
1359;DHT22;673;48.098;14.422;2023-01-09T10:09:59;6.10;99.90
1359;DHT22;673;48.098;14.422;2023-01-09T10:12:28;6.20;99.90
1359;DHT22;673;48.098;14.422;2023-01-09T10:14:57;6.20;99.90
1359;DHT22;673;48.098;14.422;2023-01-09T10:17:36;6.30;99.90
1359;DHT22;673;48.098;14.422;2023-01-09T10:20:26;6.30;99.90
1359;DHT22;673;48.098;14.422;2023-01-09T10:23:05;6.40;99.90
1359;DHT22;673;48.098;14.422;2023-01-09T10:25:40;6.40;99.90
1359;DHT22;673;48.098;14.422;2023-01-09T10:28:28;6.40;99.90
1359;DHT22;673;48.098;14.422;2023-01-09T10:31:04;6.40;99.90
1359;DHT22;673;48.098;14.422;2023-01-09T10:33:46;6.40;99.90
1359;DHT22;673;48.098;14.422;2023-01-09T10:36:34;6.30;99.90
1359;DHT22;673;48.098;14.422;2023-01-09T10:39:09;6.30;99.90
1359;DHT22;673;48.098;14.422;2023-01-09T10:41:40;6.30;99.90
1359;DHT22;673;48.098;14.422;2023-01-09T10:44:15;6.30;99.90
1359;DHT22;673;48.098;14.422;2023-01-09T10:46:47;6.30;99.90
1359;DHT22;673;48.098;14.422;2023-01-09T10:49:16;6.30;99.90
1359;DHT22;673;48.098;14.422;2023-01-09T10:51:46;6.30;99.90
1359;DHT22;673;48.098;14.422;2023-01-09T10:54:16;6.30;99.90
1359;DHT22;673;48.098;14.422;2023-01-09T10:56:50;6.40;99.90
1359;DHT22;673;48.098;14.422;2023-01-09T10:59:19;6.30;99.90
1359;DHT22;673;48.098;14.422;2023-01-09T11:01:46;6.30;99.90
1359;DHT22;673;48.098;14.422;2023-01-09T11:04:25;6.30;99.90
1359;DHT22;673;48.098;14.422;2023-01-09T11:06:58;6.30;99.90
1359;DHT22;673;48.098;14.422;2023-01-09T11:09:25;6.30;99.90
1359;DHT22;673;48.098;14.422;2023-01-09T11:11:52;6.40;99.90
1359;DHT22;673;48.098;14.422;2023-01-09T11:14:24;6.40;99.90
1359;DHT22;673;48.098;14.422;2023-01-09T11:16:57;6.50;99.90
1359;DHT22;673;48.098;14.422;2023-01-09T11:19:25;6.70;99.90
1359;DHT22;673;48.098;14.422;2023-01-09T11:22:06;6.80;99.90
1359;DHT22;673;48.098;14.422;2023-01-09T11:24:33;6.80;99.90
1359;DHT22;673;48.098;14.422;2023-01-09T11:27:21;6.80;99.90
1359;DHT22;673;48.098;14.422;2023-01-09T11:30:16;6.80;99.90
1359;DHT22;673;48.098;14.422;2023-01-09T11:32:46;6.70;99.90
1359;DHT22;673;48.098;14.422;2023-01-09T11:35:20;6.70;99.90
1359;DHT22;673;48.098;14.422;2023-01-09T11:37:58;6.60;99.90
1359;DHT22;673;48.098;14.422;2023-01-09T11:40:27;6.40;99.90
1359;DHT22;673;48.098;14.422;2023-01-09T11:43:07;6.30;99.90
1359;DHT22;673;48.098;14.422;2023-01-09T11:45:41;6.20;99.90
1359;DHT22;673;48.098;14.422;2023-01-09T11:48:16;6.20;99.90
1359;DHT22;673;48.098;14.422;2023-01-09T11:50:53;6.20;99.90
1359;DHT22;673;48.098;14.422;2023-01-09T11:53:22;6.30;99.90
1359;DHT22;673;48.098;14.422;2023-01-09T11:55:55;6.40;99.90
1359;DHT22;673;48.098;14.422;2023-01-09T11:58:23;6.40;99.90
1359;DHT22;673;48.098;14.422;2023-01-09T12:00:59;6.50;99.90
1359;DHT22;673;48.098;14.422;2023-01-09T12:03:36;6.60;99.90
1359;DHT22;673;48.098;14.422;2023-01-09T12:06:14;6.50;99.90
1359;DHT22;673;48.098;14.422;2023-01-09T12:08:55;6.60;99.90
1359;DHT22;673;48.098;14.422;2023-01-09T12:11:35;6.60;99.90
1359;DHT22;673;48.098;14.422;2023-01-09T12:14:30;6.60;99.90
1359;DHT22;673;48.098;14.422;2023-01-09T12:17:23;6.60;99.90
1359;DHT22;673;48.098;14.422;2023-01-09T12:20:16;6.60;99.90
1359;DHT22;673;48.098;14.422;2023-01-09T12:22:54;6.60;99.90
1359;DHT22;673;48.098;14.422;2023-01-09T12:25:33;6.60;99.90
1359;DHT22;673;48.098;14.422;2023-01-09T12:28:18;6.50;99.90
1359;DHT22;673;48.098;14.422;2023-01-09T12:31:00;6.60;99.90
1359;DHT22;673;48.098;14.422;2023-01-09T12:33:40;6.60;99.90
1359;DHT22;673;48.098;14.422;2023-01-09T12:36:16;6.70;99.90
1359;DHT22;673;48.098;14.422;2023-01-09T12:38:50;6.70;99.90
1359;DHT22;673;48.098;14.422;2023-01-09T12:41:44;6.80;99.90
1359;DHT22;673;48.098;14.422;2023-01-09T12:44:32;6.90;99.90
1359;DHT22;673;48.098;14.422;2023-01-09T12:47:12;6.90;99.90
1359;DHT22;673;48.098;14.422;2023-01-09T12:49:45;6.80;99.90
1359;DHT22;673;48.098;14.422;2023-01-09T12:52:19;6.80;99.90
1359;DHT22;673;48.098;14.422;2023-01-09T12:54:53;6.90;99.90
1359;DHT22;673;48.098;14.422;2023-01-09T12:57:29;6.90;99.90
1359;DHT22;673;48.098;14.422;2023-01-09T13:00:00;6.90;99.90
1359;DHT22;673;48.098;14.422;2023-01-09T13:02:33;6.80;99.90
1359;DHT22;673;48.098;14.422;2023-01-09T13:05:07;6.80;99.90
1359;DHT22;673;48.098;14.422;2023-01-09T13:07:39;6.70;99.90
1359;DHT22;673;48.098;14.422;2023-01-09T13:10:17;6.70;99.90
1359;DHT22;673;48.098;14.422;2023-01-09T13:12:47;6.60;99.90
1359;DHT22;673;48.098;14.422;2023-01-09T13:15:24;6.70;99.90
1359;DHT22;673;48.098;14.422;2023-01-09T13:17:56;6.60;99.90
1359;DHT22;673;48.098;14.422;2023-01-09T13:20:35;6.60;99.90
1359;DHT22;673;48.098;14.422;2023-01-09T13:23:05;6.60;99.90
1359;DHT22;673;48.098;14.422;2023-01-09T13:25:40;6.50;99.90
1359;DHT22;673;48.098;14.422;2023-01-09T13:28:15;6.50;99.90
1359;DHT22;673;48.098;14.422;2023-01-09T13:30:59;6.50;99.90
1359;DHT22;673;48.098;14.422;2023-01-09T13:33:31;6.40;99.90
1359;DHT22;673;48.098;14.422;2023-01-09T13:36:00;6.50;99.90
1359;DHT22;673;48.098;14.422;2023-01-09T13:38:29;6.40;99.90
1359;DHT22;673;48.098;14.422;2023-01-09T13:41:05;6.40;99.90
1359;DHT22;673;48.098;14.422;2023-01-09T13:43:56;6.30;99.90
1359;DHT22;673;48.098;14.422;2023-01-09T13:46:35;6.30;99.90
1359;DHT22;673;48.098;14.422;2023-01-09T13:49:03;6.30;99.90
1359;DHT22;673;48.098;14.422;2023-01-09T13:57:42;6.20;99.90
1359;DHT22;673;48.098;14.422;2023-01-09T14:03:21;6.10;99.90
1359;DHT22;673;48.098;14.422;2023-01-09T14:06:18;6.10;99.90
1359;DHT22;673;48.098;14.422;2023-01-09T14:08:46;6.10;99.90
1359;DHT22;673;48.098;14.422;2023-01-09T14:11:19;6.10;99.90
1359;DHT22;673;48.098;14.422;2023-01-09T14:13:54;6.10;99.90
1359;DHT22;673;48.098;14.422;2023-01-09T14:16:25;6.10;99.90
1359;DHT22;673;48.098;14.422;2023-01-09T14:19:01;6.10;99.90
1359;DHT22;673;48.098;14.422;2023-01-09T14:21:46;6.10;99.90
1359;DHT22;673;48.098;14.422;2023-01-09T14:24:23;6.00;99.90
1359;DHT22;673;48.098;14.422;2023-01-09T14:26:53;6.00;99.90
1359;DHT22;673;48.098;14.422;2023-01-09T14:29:50;6.00;99.90
1359;DHT22;673;48.098;14.422;2023-01-09T14:32:54;5.90;99.90
1359;DHT22;673;48.098;14.422;2023-01-09T14:35:27;5.80;99.90
1359;DHT22;673;48.098;14.422;2023-01-09T14:38:04;5.90;99.90
1359;DHT22;673;48.098;14.422;2023-01-09T14:40:32;5.80;99.90
1359;DHT22;673;48.098;14.422;2023-01-09T14:43:13;5.80;99.90
1359;DHT22;673;48.098;14.422;2023-01-09T14:45:45;5.80;99.90
1359;DHT22;673;48.098;14.422;2023-01-09T14:48:14;5.80;99.90
1359;DHT22;673;48.098;14.422;2023-01-09T14:50:46;5.80;99.90
1359;DHT22;673;48.098;14.422;2023-01-09T14:53:18;5.80;99.90
1359;DHT22;673;48.098;14.422;2023-01-09T14:55:51;5.80;99.90
1359;DHT22;673;48.098;14.422;2023-01-09T14:58:23;5.80;99.90
1359;DHT22;673;48.098;14.422;2023-01-09T15:00:59;5.80;99.90
1359;DHT22;673;48.098;14.422;2023-01-09T15:03:30;5.80;99.90
1359;DHT22;673;48.098;14.422;2023-01-09T15:06:00;5.80;99.90
1359;DHT22;673;48.098;14.422;2023-01-09T15:08:27;5.80;99.90
1359;DHT22;673;48.098;14.422;2023-01-09T15:10:56;5.80;99.90
1359;DHT22;673;48.098;14.422;2023-01-09T15:13:29;5.80;99.90
1359;DHT22;673;48.098;14.422;2023-01-09T15:15:58;5.80;99.90
1359;DHT22;673;48.098;14.422;2023-01-09T15:18:29;5.80;99.90
1359;DHT22;673;48.098;14.422;2023-01-09T15:20:59;5.80;99.90
1359;DHT22;673;48.098;14.422;2023-01-09T15:23:29;5.70;99.90
1359;DHT22;673;48.098;14.422;2023-01-09T15:25:58;5.70;99.90
1359;DHT22;673;48.098;14.422;2023-01-09T15:28:40;5.60;99.90
1359;DHT22;673;48.098;14.422;2023-01-09T15:31:13;5.60;99.90
1359;DHT22;673;48.098;14.422;2023-01-09T15:33:42;5.60;99.90
1359;DHT22;673;48.098;14.422;2023-01-09T15:36:15;5.60;99.90
1359;DHT22;673;48.098;14.422;2023-01-09T15:38:43;5.60;99.90
1359;DHT22;673;48.098;14.422;2023-01-09T15:41:14;5.60;99.90
1359;DHT22;673;48.098;14.422;2023-01-09T15:44:04;5.60;99.90
1359;DHT22;673;48.098;14.422;2023-01-09T15:46:32;5.50;99.90
1359;DHT22;673;48.098;14.422;2023-01-09T15:48:59;5.50;99.90
1359;DHT22;673;48.098;14.422;2023-01-09T15:51:28;5.50;99.90
1359;DHT22;673;48.098;14.422;2023-01-09T15:53:55;5.50;99.90
1359;DHT22;673;48.098;14.422;2023-01-09T15:56:26;5.50;99.90
1359;DHT22;673;48.098;14.422;2023-01-09T15:58:55;5.50;99.90
1359;DHT22;673;48.098;14.422;2023-01-09T16:01:26;5.60;99.90
1359;DHT22;673;48.098;14.422;2023-01-09T16:03:56;5.60;99.90
1359;DHT22;673;48.098;14.422;2023-01-09T16:06:25;5.50;99.90
1359;DHT22;673;48.098;14.422;2023-01-09T16:08:57;5.50;99.90
1359;DHT22;673;48.098;14.422;2023-01-09T16:11:27;5.50;99.90
1359;DHT22;673;48.098;14.422;2023-01-09T16:13:58;5.40;99.90
1359;DHT22;673;48.098;14.422;2023-01-09T16:16:29;5.40;99.90
1359;DHT22;673;48.098;14.422;2023-01-09T16:18:58;5.40;99.90
1359;DHT22;673;48.098;14.422;2023-01-09T16:21:31;5.40;99.90
1359;DHT22;673;48.098;14.422;2023-01-09T16:24:02;5.40;99.90
1359;DHT22;673;48.098;14.422;2023-01-09T16:26:31;5.50;99.90
1359;DHT22;673;48.098;14.422;2023-01-09T16:29:25;5.50;99.90
1359;DHT22;673;48.098;14.422;2023-01-09T16:31:58;5.50;99.90
1359;DHT22;673;48.098;14.422;2023-01-09T16:34:25;5.50;99.90
1359;DHT22;673;48.098;14.422;2023-01-09T16:36:52;5.50;99.90
1359;DHT22;673;48.098;14.422;2023-01-09T16:39:21;5.50;99.90
1359;DHT22;673;48.098;14.422;2023-01-09T16:41:50;5.50;99.90
1359;DHT22;673;48.098;14.422;2023-01-09T16:44:35;5.50;99.90
1359;DHT22;673;48.098;14.422;2023-01-09T16:47:02;5.40;99.90
1359;DHT22;673;48.098;14.422;2023-01-09T16:49:29;5.40;99.90
1359;DHT22;673;48.098;14.422;2023-01-09T16:51:56;5.40;99.90
1359;DHT22;673;48.098;14.422;2023-01-09T16:54:28;5.40;99.90
1359;DHT22;673;48.098;14.422;2023-01-09T16:56:56;5.40;99.90